Silver Shadow — C6FN6 — position and weather

sailwx.info

Track history (hours):
 
Tides and Currents Weather Stations Pressure Air Temp Water Temp Dewpoint Dewpoint Depression Visibility Wind Speed Wind Dir Waves Ship Positions

Silver Shadow

Operator: V Ships Leisure SAM

Last reported at 2016-Feb-13 10:33 UTC. Time now 2016-Feb-13 12:38 UTC.
Position N 01°10' E 103°41'.

Length 186 m; draft 6.1 m.

Type: Passenger vessel. MMSI: 308628000.

Date/timePositionNaut miles runAvg speedWind from/ knotsBaromVisibWave heightAir tempDewpointWater temp
2016-Feb-13 10:33N 01°10' E 103°41'9 8.7
2016-Feb-13 09:33N 01°15' E 103°48'1 1.3
2016-Feb-13 08:31N 01°16' E 103°49'0 0.0
2016-Feb-13 07:31N 01°16' E 103°49'0 0.0
2016-Feb-13 06:25N 01°16' E 103°49'0 0.0
2016-Feb-13 04:16N 01°16' E 103°49'0 0.0
2016-Feb-13 02:31N 01°16' E 103°49'0 0.0
2016-Feb-13 01:19N 01°16' E 103°49'0 0.0
2016-Feb-12 23:31N 01°16' E 103°49'0 0.0
2016-Feb-12 22:32N 01°16' E 103°49'3 3.4
2016-Feb-12 21:33N 01°13' E 103°48'7310.1
2016-Feb-12 14:21N 01°41' E 102°41'1411.9
2016-Feb-12 13:12N 01°47' E 102°29'811.9
2016-Feb-12 12:32N 01°51' E 102°22'1211.9
2016-Feb-12 11:33N 01°57' E 102°12'14 4.6
2016-Feb-12 08:33N 02°10' E 102°14'0 0.0
2016-Feb-12 07:30N 02°10' E 102°14'0 0.0
2016-Feb-12 06:30N 02°10' E 102°14'0 0.0
2016-Feb-12 03:24N 02°10' E 102°14'0 0.0
2016-Feb-11 23:11N 02°10' E 102°14'5 6.8
2016-Feb-11 22:30N 02°08' E 102°10'227 6.1
2016-Feb-10 09:13N 05°27' E 100°21'1 1.9
2016-Feb-10 08:27N 05°25' E 100°21'0 0.1
2016-Feb-10 07:33N 05°25' E 100°21'0 0.1
2016-Feb-10 06:33N 05°25' E 100°21'0 0.1
2016-Feb-10 05:33N 05°25' E 100°21'0 0.0
2016-Feb-10 04:03N 05°25' E 100°21'0 0.0
2016-Feb-10 03:33N 05°25' E 100°21'0 0.0
2016-Feb-10 02:27N 05°25' E 100°21'0 0.0
2016-Feb-10 01:09N 05°25' E 100°21'0 0.0
2016-Feb-10 00:33N 05°25' E 100°21'0 0.1
2016-Feb-09 23:33N 05°25' E 100°21'  
2016-Feb-06 18:31N 01°54' E 102°22'1313.1
2016-Feb-06 17:33N 01°49' E 102°33'1413.3
2016-Feb-06 16:31N 01°43' E 102°46'6613.1
2016-Feb-06 11:30N 01°09' E 103°42'7 7.0
2016-Feb-06 10:32N 01°14' E 103°47'3 2.7
2016-Feb-06 09:32N 01°16' E 103°49'0 0.0
2016-Feb-06 08:26N 01°16' E 103°49'0 0.0
2016-Feb-06 07:23N 01°16' E 103°49'0 0.0
2016-Feb-06 06:32N 01°16' E 103°49'0 0.0
2016-Feb-06 05:29N 01°16' E 103°49'0 0.0
2016-Feb-06 04:29N 01°16' E 103°49'0 0.0
2016-Feb-06 03:29N 01°16' E 103°49'0 0.0
2016-Feb-06 02:17N 01°16' E 103°49'0 0.0
2016-Feb-06 01:23N 01°16' E 103°49'0 0.0
2016-Feb-06 00:29N 01°16' E 103°49'0 0.0
2016-Feb-05 23:32N 01°16' E 103°49'0 0.0
2016-Feb-05 22:33N 01°16' E 103°49'4 3.9
2016-Feb-05 21:33N 01°12' E 103°49'1010.3
2016-Feb-05 20:33N 01°15' E 103°59'1313.0
2016-Feb-05 19:33N 01°17' E 104°12'  
Track history (hours):
 
Tides and Currents Weather Stations Pressure Air Temp Water Temp Dewpoint Dewpoint Depression Visibility Wind Speed Wind Dir Waves Ship Positions

Silver Shadow

Operator: V Ships Leisure SAM

Last reported at 2016-Feb-13 10:33 UTC. Time now 2016-Feb-13 12:38 UTC.
Position N 01°10' E 103°41'.

Length 186 m; draft 6.1 m.

Type: Passenger vessel. MMSI: 308628000.

Date/timePositionNaut miles runAvg speedWind from/ knotsBaromVisibWave heightAir tempDewpointWater temp
2016-Feb-13 10:33N 01°10' E 103°41'9 8.7
2016-Feb-13 09:33N 01°15' E 103°48'1 1.3
2016-Feb-13 08:31N 01°16' E 103°49'0 0.0
2016-Feb-13 07:31N 01°16' E 103°49'0 0.0
2016-Feb-13 06:25N 01°16' E 103°49'0 0.0
2016-Feb-13 04:16N 01°16' E 103°49'0 0.0
2016-Feb-13 02:31N 01°16' E 103°49'0 0.0
2016-Feb-13 01:19N 01°16' E 103°49'0 0.0
2016-Feb-12 23:31N 01°16' E 103°49'0 0.0
2016-Feb-12 22:32N 01°16' E 103°49'3 3.4
2016-Feb-12 21:33N 01°13' E 103°48'7310.1
2016-Feb-12 14:21N 01°41' E 102°41'1411.9
2016-Feb-12 13:12N 01°47' E 102°29'811.9
2016-Feb-12 12:32N 01°51' E 102°22'1211.9
2016-Feb-12 11:33N 01°57' E 102°12'14 4.6
2016-Feb-12 08:33N 02°10' E 102°14'0 0.0
2016-Feb-12 07:30N 02°10' E 102°14'0 0.0
2016-Feb-12 06:30N 02°10' E 102°14'0 0.0
2016-Feb-12 03:24N 02°10' E 102°14'0 0.0
2016-Feb-11 23:11N 02°10' E 102°14'5 6.8
2016-Feb-11 22:30N 02°08' E 102°10'227 6.1
2016-Feb-10 09:13N 05°27' E 100°21'1 1.9
2016-Feb-10 08:27N 05°25' E 100°21'0 0.1
2016-Feb-10 07:33N 05°25' E 100°21'0 0.1
2016-Feb-10 06:33N 05°25' E 100°21'0 0.1
2016-Feb-10 05:33N 05°25' E 100°21'0 0.0
2016-Feb-10 04:03N 05°25' E 100°21'0 0.0
2016-Feb-10 03:33N 05°25' E 100°21'0 0.0
2016-Feb-10 02:27N 05°25' E 100°21'0 0.0
2016-Feb-10 01:09N 05°25' E 100°21'0 0.0
2016-Feb-10 00:33N 05°25' E 100°21'0 0.1
2016-Feb-09 23:33N 05°25' E 100°21'  
2016-Feb-06 18:31N 01°54' E 102°22'1313.1
2016-Feb-06 17:33N 01°49' E 102°33'1413.3
2016-Feb-06 16:31N 01°43' E 102°46'6613.1
2016-Feb-06 11:30N 01°09' E 103°42'7 7.0
2016-Feb-06 10:32N 01°14' E 103°47'3 2.7
2016-Feb-06 09:32N 01°16' E 103°49'0 0.0
2016-Feb-06 08:26N 01°16' E 103°49'0 0.0
2016-Feb-06 07:23N 01°16' E 103°49'0 0.0
2016-Feb-06 06:32N 01°16' E 103°49'0 0.0
2016-Feb-06 05:29N 01°16' E 103°49'0 0.0
2016-Feb-06 04:29N 01°16' E 103°49'0 0.0
2016-Feb-06 03:29N 01°16' E 103°49'0 0.0
2016-Feb-06 02:17N 01°16' E 103°49'0 0.0
2016-Feb-06 01:23N 01°16' E 103°49'0 0.0
2016-Feb-06 00:29N 01°16' E 103°49'0 0.0
2016-Feb-05 23:32N 01°16' E 103°49'0 0.0
2016-Feb-05 22:33N 01°16' E 103°49'4 3.9
2016-Feb-05 21:33N 01°12' E 103°49'1010.3
2016-Feb-05 20:33N 01°15' E 103°59'1313.0
2016-Feb-05 19:33N 01°17' E 104°12'  

Dump ship's entire track history